sensor_id;sensor_type;location;lat;lon;timestamp;P1;durP1;ratioP1;P2;durP2;ratioP2
68858;SDS011;55864;49.238;8.092;2023-02-18T00:01:19;9.47;;;5.27;;
68858;SDS011;55864;49.238;8.092;2023-02-18T00:03:21;9.47;;;5.50;;
68858;SDS011;55864;49.238;8.092;2023-02-18T00:05:22;10.32;;;5.38;;
68858;SDS011;55864;49.238;8.092;2023-02-18T00:07:22;9.40;;;4.73;;
68858;SDS011;55864;49.238;8.092;2023-02-18T00:09:23;9.98;;;5.18;;
68858;SDS011;55864;49.238;8.092;2023-02-18T00:11:23;9.10;;;4.80;;
68858;SDS011;55864;49.238;8.092;2023-02-18T00:13:25;9.40;;;4.87;;
68858;SDS011;55864;49.238;8.092;2023-02-18T00:15:26;8.97;;;4.77;;
68858;SDS011;55864;49.238;8.092;2023-02-18T00:17:27;8.23;;;4.60;;
68858;SDS011;55864;49.238;8.092;2023-02-18T00:19:28;8.00;;;4.27;;
68858;SDS011;55864;49.238;8.092;2023-02-18T00:21:28;8.50;;;4.55;;
68858;SDS011;55864;49.238;8.092;2023-02-18T00:23:30;7.00;;;3.83;;
68858;SDS011;55864;49.238;8.092;2023-02-18T00:25:31;8.60;;;4.40;;
68858;SDS011;55864;49.238;8.092;2023-02-18T00:27:31;8.33;;;4.60;;
68858;SDS011;55864;49.238;8.092;2023-02-18T00:29:33;8.03;;;4.47;;
68858;SDS011;55864;49.238;8.092;2023-02-18T00:31:35;10.00;;;4.60;;
68858;SDS011;55864;49.238;8.092;2023-02-18T00:33:36;9.07;;;4.20;;
68858;SDS011;55864;49.238;8.092;2023-02-18T00:35:36;8.27;;;4.27;;
68858;SDS011;55864;49.238;8.092;2023-02-18T00:37:37;7.53;;;4.13;;
68858;SDS011;55864;49.238;8.092;2023-02-18T00:39:38;8.73;;;4.17;;
68858;SDS011;55864;49.238;8.092;2023-02-18T00:41:39;8.27;;;4.10;;
68858;SDS011;55864;49.238;8.092;2023-02-18T00:43:40;7.80;;;4.10;;
68858;SDS011;55864;49.238;8.092;2023-02-18T00:45:42;7.70;;;3.90;;
68858;SDS011;55864;49.238;8.092;2023-02-18T00:47:43;8.33;;;4.13;;
68858;SDS011;55864;49.238;8.092;2023-02-18T00:49:44;7.70;;;3.97;;
68858;SDS011;55864;49.238;8.092;2023-02-18T00:51:44;7.63;;;3.90;;
68858;SDS011;55864;49.238;8.092;2023-02-18T00:53:45;7.88;;;4.00;;
68858;SDS011;55864;49.238;8.092;2023-02-18T00:55:45;7.63;;;3.77;;
68858;SDS011;55864;49.238;8.092;2023-02-18T00:57:46;7.50;;;3.77;;
68858;SDS011;55864;49.238;8.092;2023-02-18T00:59:47;7.53;;;3.90;;
68858;SDS011;55864;49.238;8.092;2023-02-18T01:01:49;7.50;;;3.73;;
68858;SDS011;55864;49.238;8.092;2023-02-18T01:03:49;7.57;;;3.97;;
68858;SDS011;55864;49.238;8.092;2023-02-18T01:05:50;9.30;;;4.47;;
68858;SDS011;55864;49.238;8.092;2023-02-18T01:07:51;7.17;;;4.00;;
68858;SDS011;55864;49.238;8.092;2023-02-18T01:09:51;7.87;;;4.17;;
68858;SDS011;55864;49.238;8.092;2023-02-18T01:11:52;8.30;;;4.03;;
68858;SDS011;55864;49.238;8.092;2023-02-18T01:13:52;7.75;;;3.95;;
68858;SDS011;55864;49.238;8.092;2023-02-18T01:15:53;8.30;;;4.10;;
68858;SDS011;55864;49.238;8.092;2023-02-18T01:17:55;8.13;;;4.40;;
68858;SDS011;55864;49.238;8.092;2023-02-18T01:19:56;7.43;;;3.73;;
68858;SDS011;55864;49.238;8.092;2023-02-18T01:21:57;8.17;;;4.40;;
68858;SDS011;55864;49.238;8.092;2023-02-18T01:23:57;7.83;;;4.27;;
68858;SDS011;55864;49.238;8.092;2023-02-18T01:25:58;8.07;;;4.23;;
68858;SDS011;55864;49.238;8.092;2023-02-18T01:27:58;7.87;;;3.93;;
68858;SDS011;55864;49.238;8.092;2023-02-18T01:29:59;9.68;;;4.05;;
68858;SDS011;55864;49.238;8.092;2023-02-18T01:31:59;7.40;;;4.07;;
68858;SDS011;55864;49.238;8.092;2023-02-18T01:34:01;8.43;;;4.77;;
68858;SDS011;55864;49.238;8.092;2023-02-18T01:36:03;9.77;;;4.45;;
68858;SDS011;55864;49.238;8.092;2023-02-18T01:38:04;8.18;;;4.07;;
68858;SDS011;55864;49.238;8.092;2023-02-18T01:40:05;8.17;;;4.43;;
68858;SDS011;55864;49.238;8.092;2023-02-18T01:42:13;9.57;;;4.33;;
68858;SDS011;55864;49.238;8.092;2023-02-18T01:44:19;8.47;;;4.57;;
68858;SDS011;55864;49.238;8.092;2023-02-18T01:46:21;8.65;;;4.68;;
68858;SDS011;55864;49.238;8.092;2023-02-18T01:48:22;9.13;;;4.73;;
68858;SDS011;55864;49.238;8.092;2023-02-18T01:50:37;9.10;;;4.90;;
68858;SDS011;55864;49.238;8.092;2023-02-18T01:52:42;8.07;;;4.50;;
68858;SDS011;55864;49.238;8.092;2023-02-18T01:54:43;10.03;;;4.73;;
68858;SDS011;55864;49.238;8.092;2023-02-18T01:56:47;9.63;;;4.65;;
68858;SDS011;55864;49.238;8.092;2023-02-18T01:58:51;10.13;;;4.90;;
68858;SDS011;55864;49.238;8.092;2023-02-18T02:00:54;9.33;;;4.87;;
68858;SDS011;55864;49.238;8.092;2023-02-18T02:02:55;8.70;;;4.60;;
68858;SDS011;55864;49.238;8.092;2023-02-18T02:04:55;8.53;;;4.90;;
68858;SDS011;55864;49.238;8.092;2023-02-18T02:06:57;9.27;;;4.90;;
68858;SDS011;55864;49.238;8.092;2023-02-18T02:08:58;8.87;;;4.70;;
68858;SDS011;55864;49.238;8.092;2023-02-18T02:11:03;8.10;;;4.35;;
68858;SDS011;55864;49.238;8.092;2023-02-18T02:13:24;8.73;;;4.40;;
68858;SDS011;55864;49.238;8.092;2023-02-18T02:15:33;9.87;;;4.63;;
68858;SDS011;55864;49.238;8.092;2023-02-18T02:17:42;9.40;;;5.05;;
68858;SDS011;55864;49.238;8.092;2023-02-18T02:23:01;9.70;;;4.87;;
68858;SDS011;55864;49.238;8.092;2023-02-18T02:25:27;9.00;;;4.53;;
68858;SDS011;55864;49.238;8.092;2023-02-18T02:27:53;9.47;;;4.70;;
68858;SDS011;55864;49.238;8.092;2023-02-18T02:30:23;10.10;;;5.00;;
68858;SDS011;55864;49.238;8.092;2023-02-18T02:35:20;10.27;;;5.17;;
68858;SDS011;55864;49.238;8.092;2023-02-18T02:37:26;9.23;;;5.03;;
68858;SDS011;55864;49.238;8.092;2023-02-18T02:39:36;8.73;;;5.10;;
68858;SDS011;55864;49.238;8.092;2023-02-18T02:41:43;10.10;;;5.60;;
68858;SDS011;55864;49.238;8.092;2023-02-18T02:43:54;9.97;;;5.33;;
68858;SDS011;55864;49.238;8.092;2023-02-18T02:46:02;9.37;;;5.13;;
68858;SDS011;55864;49.238;8.092;2023-02-18T02:48:08;8.87;;;4.87;;
68858;SDS011;55864;49.238;8.092;2023-02-18T02:50:22;8.68;;;4.85;;
68858;SDS011;55864;49.238;8.092;2023-02-18T02:52:29;9.53;;;5.13;;
68858;SDS011;55864;49.238;8.092;2023-02-18T02:54:31;8.82;;;4.65;;
68858;SDS011;55864;49.238;8.092;2023-02-18T02:56:31;9.93;;;4.80;;
68858;SDS011;55864;49.238;8.092;2023-02-18T02:58:32;10.57;;;5.37;;
68858;SDS011;55864;49.238;8.092;2023-02-18T03:00:36;10.60;;;5.67;;
68858;SDS011;55864;49.238;8.092;2023-02-18T03:05:14;11.07;;;5.30;;
68858;SDS011;55864;49.238;8.092;2023-02-18T03:07:41;8.88;;;5.00;;
68858;SDS011;55864;49.238;8.092;2023-02-18T03:10:05;10.18;;;5.55;;
68858;SDS011;55864;49.238;8.092;2023-02-18T03:12:18;11.10;;;5.93;;
68858;SDS011;55864;49.238;8.092;2023-02-18T03:14:29;9.97;;;5.63;;
68858;SDS011;55864;49.238;8.092;2023-02-18T03:16:42;9.90;;;5.67;;
68858;SDS011;55864;49.238;8.092;2023-02-18T03:18:50;11.03;;;5.70;;
68858;SDS011;55864;49.238;8.092;2023-02-18T03:20:59;11.10;;;6.00;;
68858;SDS011;55864;49.238;8.092;2023-02-18T03:23:06;12.87;;;6.40;;
68858;SDS011;55864;49.238;8.092;2023-02-18T03:25:10;10.70;;;6.10;;
68858;SDS011;55864;49.238;8.092;2023-02-18T03:27:14;10.60;;;6.07;;
68858;SDS011;55864;49.238;8.092;2023-02-18T03:29:19;11.07;;;5.72;;
68858;SDS011;55864;49.238;8.092;2023-02-18T03:31:24;12.30;;;6.82;;
68858;SDS011;55864;49.238;8.092;2023-02-18T03:33:29;10.67;;;6.00;;
68858;SDS011;55864;49.238;8.092;2023-02-18T03:35:32;10.03;;;6.17;;
68858;SDS011;55864;49.238;8.092;2023-02-18T03:37:38;11.63;;;6.00;;
68858;SDS011;55864;49.238;8.092;2023-02-18T03:39:43;9.97;;;6.17;;
68858;SDS011;55864;49.238;8.092;2023-02-18T03:41:47;10.10;;;6.03;;
68858;SDS011;55864;49.238;8.092;2023-02-18T03:43:48;11.07;;;6.30;;
68858;SDS011;55864;49.238;8.092;2023-02-18T03:45:49;14.40;;;6.37;;
68858;SDS011;55864;49.238;8.092;2023-02-18T03:47:50;10.23;;;5.93;;
68858;SDS011;55864;49.238;8.092;2023-02-18T03:49:51;11.70;;;6.30;;
68858;SDS011;55864;49.238;8.092;2023-02-18T03:51:52;10.25;;;6.40;;
68858;SDS011;55864;49.238;8.092;2023-02-18T03:53:54;10.70;;;6.55;;
68858;SDS011;55864;49.238;8.092;2023-02-18T03:55:54;10.73;;;6.63;;
68858;SDS011;55864;49.238;8.092;2023-02-18T03:57:55;12.23;;;7.00;;
68858;SDS011;55864;49.238;8.092;2023-02-18T03:59:55;11.27;;;6.83;;
68858;SDS011;55864;49.238;8.092;2023-02-18T04:01:56;11.90;;;7.20;;
68858;SDS011;55864;49.238;8.092;2023-02-18T04:03:56;12.77;;;6.83;;
68858;SDS011;55864;49.238;8.092;2023-02-18T04:05:57;11.50;;;6.83;;
68858;SDS011;55864;49.238;8.092;2023-02-18T04:07:58;13.70;;;7.00;;
68858;SDS011;55864;49.238;8.092;2023-02-18T04:09:59;12.77;;;7.35;;
68858;SDS011;55864;49.238;8.092;2023-02-18T04:12:00;13.13;;;7.70;;
68858;SDS011;55864;49.238;8.092;2023-02-18T04:14:00;11.73;;;6.70;;
68858;SDS011;55864;49.238;8.092;2023-02-18T04:16:01;14.70;;;7.03;;
68858;SDS011;55864;49.238;8.092;2023-02-18T04:18:02;12.33;;;7.17;;
68858;SDS011;55864;49.238;8.092;2023-02-18T04:20:03;13.00;;;7.40;;
68858;SDS011;55864;49.238;8.092;2023-02-18T04:22:05;12.30;;;7.10;;
68858;SDS011;55864;49.238;8.092;2023-02-18T04:24:05;13.03;;;7.30;;
68858;SDS011;55864;49.238;8.092;2023-02-18T04:26:07;12.05;;;6.90;;
68858;SDS011;55864;49.238;8.092;2023-02-18T04:28:08;13.05;;;7.35;;
68858;SDS011;55864;49.238;8.092;2023-02-18T04:30:10;12.80;;;7.53;;
68858;SDS011;55864;49.238;8.092;2023-02-18T04:32:11;13.90;;;7.90;;
68858;SDS011;55864;49.238;8.092;2023-02-18T04:34:11;13.90;;;7.80;;
68858;SDS011;55864;49.238;8.092;2023-02-18T04:36:12;13.93;;;7.93;;
68858;SDS011;55864;49.238;8.092;2023-02-18T04:38:12;14.10;;;6.93;;
68858;SDS011;55864;49.238;8.092;2023-02-18T04:40:13;13.52;;;7.40;;
68858;SDS011;55864;49.238;8.092;2023-02-18T04:42:17;14.33;;;7.83;;
68858;SDS011;55864;49.238;8.092;2023-02-18T04:44:17;13.35;;;7.25;;
68858;SDS011;55864;49.238;8.092;2023-02-18T04:46:18;15.53;;;7.53;;
68858;SDS011;55864;49.238;8.092;2023-02-18T04:48:18;14.00;;;7.77;;
68858;SDS011;55864;49.238;8.092;2023-02-18T04:50:19;12.90;;;8.13;;
68858;SDS011;55864;49.238;8.092;2023-02-18T04:52:20;13.77;;;7.57;;
68858;SDS011;55864;49.238;8.092;2023-02-18T04:54:20;13.27;;;7.90;;
68858;SDS011;55864;49.238;8.092;2023-02-18T04:56:21;12.82;;;7.72;;
68858;SDS011;55864;49.238;8.092;2023-02-18T04:58:23;13.07;;;7.60;;
68858;SDS011;55864;49.238;8.092;2023-02-18T05:00:24;14.00;;;7.65;;
68858;SDS011;55864;49.238;8.092;2023-02-18T05:02:24;13.60;;;7.63;;
68858;SDS011;55864;49.238;8.092;2023-02-18T05:04:25;12.00;;;7.45;;
68858;SDS011;55864;49.238;8.092;2023-02-18T05:06:25;12.70;;;7.57;;
68858;SDS011;55864;49.238;8.092;2023-02-18T05:08:26;12.02;;;7.30;;
68858;SDS011;55864;49.238;8.092;2023-02-18T05:10:26;35.97;;;18.45;;
68858;SDS011;55864;49.238;8.092;2023-02-18T05:12:27;44.60;;;17.97;;
68858;SDS011;55864;49.238;8.092;2023-02-18T05:14:29;85.70;;;30.43;;
68858;SDS011;55864;49.238;8.092;2023-02-18T05:16:29;30.35;;;13.52;;
68858;SDS011;55864;49.238;8.092;2023-02-18T05:18:30;85.03;;;33.63;;
68858;SDS011;55864;49.238;8.092;2023-02-18T05:20:30;113.43;;;42.13;;
68858;SDS011;55864;49.238;8.092;2023-02-18T05:22:31;63.00;;;26.10;;
68858;SDS011;55864;49.238;8.092;2023-02-18T05:24:31;28.08;;;13.88;;
68858;SDS011;55864;49.238;8.092;2023-02-18T05:26:32;18.30;;;10.77;;
68858;SDS011;55864;49.238;8.092;2023-02-18T05:28:32;15.48;;;9.35;;
68858;SDS011;55864;49.238;8.092;2023-02-18T05:30:34;14.65;;;9.23;;
68858;SDS011;55864;49.238;8.092;2023-02-18T05:32:35;17.75;;;10.98;;
68858;SDS011;55864;49.238;8.092;2023-02-18T05:34:35;12.02;;;7.50;;
68858;SDS011;55864;49.238;8.092;2023-02-18T05:36:36;13.23;;;8.45;;
68858;SDS011;55864;49.238;8.092;2023-02-18T05:38:37;14.43;;;8.75;;
68858;SDS011;55864;49.238;8.092;2023-02-18T05:40:37;16.27;;;8.50;;
68858;SDS011;55864;49.238;8.092;2023-02-18T05:42:38;11.77;;;7.05;;
68858;SDS011;55864;49.238;8.092;2023-02-18T05:44:38;12.40;;;7.40;;
68858;SDS011;55864;49.238;8.092;2023-02-18T05:46:40;13.02;;;8.00;;
68858;SDS011;55864;49.238;8.092;2023-02-18T05:48:41;12.52;;;7.63;;
68858;SDS011;55864;49.238;8.092;2023-02-18T05:50:41;13.05;;;7.53;;
68858;SDS011;55864;49.238;8.092;2023-02-18T05:52:42;14.13;;;7.65;;
68858;SDS011;55864;49.238;8.092;2023-02-18T05:54:43;12.20;;;7.03;;
68858;SDS011;55864;49.238;8.092;2023-02-18T05:56:43;12.80;;;7.90;;
68858;SDS011;55864;49.238;8.092;2023-02-18T05:58:44;13.77;;;7.10;;
68858;SDS011;55864;49.238;8.092;2023-02-18T06:00:44;13.43;;;7.28;;
68858;SDS011;55864;49.238;8.092;2023-02-18T06:02:46;13.88;;;7.60;;
68858;SDS011;55864;49.238;8.092;2023-02-18T06:04:47;14.57;;;8.20;;
68858;SDS011;55864;49.238;8.092;2023-02-18T06:06:47;12.87;;;7.53;;
68858;SDS011;55864;49.238;8.092;2023-02-18T06:08:48;14.77;;;7.88;;
68858;SDS011;55864;49.238;8.092;2023-02-18T06:10:49;14.18;;;7.30;;
68858;SDS011;55864;49.238;8.092;2023-02-18T06:12:49;12.82;;;7.25;;
68858;SDS011;55864;49.238;8.092;2023-02-18T06:14:50;12.60;;;7.30;;
68858;SDS011;55864;49.238;8.092;2023-02-18T06:16:50;12.05;;;6.82;;
68858;SDS011;55864;49.238;8.092;2023-02-18T06:18:52;13.10;;;7.00;;
68858;SDS011;55864;49.238;8.092;2023-02-18T06:20:53;10.85;;;6.45;;
68858;SDS011;55864;49.238;8.092;2023-02-18T06:22:54;11.73;;;6.38;;
68858;SDS011;55864;49.238;8.092;2023-02-18T06:24:54;11.85;;;6.63;;
68858;SDS011;55864;49.238;8.092;2023-02-18T06:26:55;11.87;;;6.23;;
68858;SDS011;55864;49.238;8.092;2023-02-18T06:28:55;12.90;;;6.63;;
68858;SDS011;55864;49.238;8.092;2023-02-18T06:30:56;11.88;;;6.60;;
68858;SDS011;55864;49.238;8.092;2023-02-18T06:32:56;11.17;;;6.33;;
68858;SDS011;55864;49.238;8.092;2023-02-18T06:34:58;13.43;;;6.45;;
68858;SDS011;55864;49.238;8.092;2023-02-18T06:36:59;12.87;;;6.80;;
68858;SDS011;55864;49.238;8.092;2023-02-18T06:39:01;13.03;;;6.43;;
68858;SDS011;55864;49.238;8.092;2023-02-18T06:41:02;13.15;;;6.88;;
68858;SDS011;55864;49.238;8.092;2023-02-18T06:43:04;11.18;;;6.30;;
68858;SDS011;55864;49.238;8.092;2023-02-18T06:45:04;10.98;;;6.35;;
68858;SDS011;55864;49.238;8.092;2023-02-18T06:47:05;10.97;;;6.20;;
68858;SDS011;55864;49.238;8.092;2023-02-18T06:49:06;12.27;;;6.13;;
68858;SDS011;55864;49.238;8.092;2023-02-18T06:51:08;10.13;;;5.82;;
68858;SDS011;55864;49.238;8.092;2023-02-18T06:53:08;11.20;;;6.03;;
68858;SDS011;55864;49.238;8.092;2023-02-18T06:55:09;10.50;;;5.88;;
68858;SDS011;55864;49.238;8.092;2023-02-18T06:57:10;9.67;;;5.53;;
68858;SDS011;55864;49.238;8.092;2023-02-18T06:59:11;10.52;;;6.32;;
68858;SDS011;55864;49.238;8.092;2023-02-18T07:01:11;12.02;;;6.63;;
68858;SDS011;55864;49.238;8.092;2023-02-18T07:03:12;12.27;;;6.47;;
68858;SDS011;55864;49.238;8.092;2023-02-18T07:05:13;13.27;;;5.67;;
68858;SDS011;55864;49.238;8.092;2023-02-18T07:07:15;11.80;;;5.70;;
68858;SDS011;55864;49.238;8.092;2023-02-18T07:09:15;9.17;;;5.13;;
68858;SDS011;55864;49.238;8.092;2023-02-18T07:11:16;11.02;;;5.55;;
68858;SDS011;55864;49.238;8.092;2023-02-18T07:13:17;10.87;;;5.47;;
68858;SDS011;55864;49.238;8.092;2023-02-18T07:15:18;10.17;;;5.13;;
68858;SDS011;55864;49.238;8.092;2023-02-18T07:17:18;9.45;;;4.78;;
68858;SDS011;55864;49.238;8.092;2023-02-18T07:19:19;11.10;;;5.07;;
68858;SDS011;55864;49.238;8.092;2023-02-18T07:21:19;10.27;;;4.97;;
68858;SDS011;55864;49.238;8.092;2023-02-18T07:23:21;9.43;;;5.20;;
68858;SDS011;55864;49.238;8.092;2023-02-18T07:25:22;10.27;;;4.80;;
68858;SDS011;55864;49.238;8.092;2023-02-18T07:27:23;8.60;;;4.80;;
68858;SDS011;55864;49.238;8.092;2023-02-18T07:29:24;10.60;;;4.93;;
68858;SDS011;55864;49.238;8.092;2023-02-18T07:31:24;10.13;;;5.67;;
68858;SDS011;55864;49.238;8.092;2023-02-18T07:33:25;9.70;;;4.93;;
68858;SDS011;55864;49.238;8.092;2023-02-18T07:35:25;10.07;;;5.28;;
68858;SDS011;55864;49.238;8.092;2023-02-18T07:37:26;10.05;;;5.50;;
68858;SDS011;55864;49.238;8.092;2023-02-18T07:39:28;10.68;;;4.97;;
68858;SDS011;55864;49.238;8.092;2023-02-18T07:41:28;9.50;;;5.30;;
68858;SDS011;55864;49.238;8.092;2023-02-18T07:43:29;7.85;;;4.32;;
68858;SDS011;55864;49.238;8.092;2023-02-18T07:45:30;9.32;;;4.82;;
68858;SDS011;55864;49.238;8.092;2023-02-18T07:47:30;10.55;;;5.65;;
68858;SDS011;55864;49.238;8.092;2023-02-18T07:49:34;9.77;;;5.13;;
68858;SDS011;55864;49.238;8.092;2023-02-18T07:51:35;10.57;;;4.97;;
68858;SDS011;55864;49.238;8.092;2023-02-18T07:53:35;10.23;;;5.50;;
68858;SDS011;55864;49.238;8.092;2023-02-18T07:55:38;12.83;;;6.97;;
68858;SDS011;55864;49.238;8.092;2023-02-18T07:57:38;16.92;;;8.32;;
68858;SDS011;55864;49.238;8.092;2023-02-18T07:59:39;11.83;;;6.30;;
68858;SDS011;55864;49.238;8.092;2023-02-18T08:01:40;10.40;;;5.23;;
68858;SDS011;55864;49.238;8.092;2023-02-18T08:03:41;13.83;;;7.43;;
68858;SDS011;55864;49.238;8.092;2023-02-18T08:05:41;11.20;;;5.93;;
68858;SDS011;55864;49.238;8.092;2023-02-18T08:07:42;16.07;;;7.37;;
68858;SDS011;55864;49.238;8.092;2023-02-18T08:09:43;10.25;;;5.90;;
68858;SDS011;55864;49.238;8.092;2023-02-18T08:11:45;11.10;;;6.32;;
68858;SDS011;55864;49.238;8.092;2023-02-18T08:13:45;12.27;;;6.82;;
68858;SDS011;55864;49.238;8.092;2023-02-18T08:15:46;12.18;;;6.65;;
68858;SDS011;55864;49.238;8.092;2023-02-18T08:17:47;10.43;;;6.17;;
68858;SDS011;55864;49.238;8.092;2023-02-18T08:19:47;12.17;;;7.43;;
68858;SDS011;55864;49.238;8.092;2023-02-18T08:21:48;19.35;;;7.38;;
68858;SDS011;55864;49.238;8.092;2023-02-18T08:23:48;15.50;;;6.10;;
68858;SDS011;55864;49.238;8.092;2023-02-18T08:25:49;10.83;;;6.13;;
68858;SDS011;55864;49.238;8.092;2023-02-18T08:27:52;14.40;;;6.43;;
68858;SDS011;55864;49.238;8.092;2023-02-18T08:29:53;11.23;;;5.50;;
68858;SDS011;55864;49.238;8.092;2023-02-18T08:31:53;11.38;;;5.25;;
68858;SDS011;55864;49.238;8.092;2023-02-18T08:33:55;12.47;;;5.00;;
68858;SDS011;55864;49.238;8.092;2023-02-18T08:35:57;9.85;;;4.13;;
68858;SDS011;55864;49.238;8.092;2023-02-18T08:37:58;10.05;;;4.47;;
68858;SDS011;55864;49.238;8.092;2023-02-18T08:39:58;8.77;;;4.43;;
68858;SDS011;55864;49.238;8.092;2023-02-18T08:42:01;9.23;;;4.80;;
68858;SDS011;55864;49.238;8.092;2023-02-18T08:44:03;10.80;;;4.73;;
68858;SDS011;55864;49.238;8.092;2023-02-18T08:46:04;8.88;;;4.72;;
68858;SDS011;55864;49.238;8.092;2023-02-18T08:48:05;8.53;;;4.30;;
68858;SDS011;55864;49.238;8.092;2023-02-18T08:50:07;8.35;;;4.60;;
68858;SDS011;55864;49.238;8.092;2023-02-18T08:52:08;8.48;;;4.18;;
68858;SDS011;55864;49.238;8.092;2023-02-18T08:54:09;12.07;;;5.00;;
68858;SDS011;55864;49.238;8.092;2023-02-18T08:56:09;8.50;;;4.88;;
68858;SDS011;55864;49.238;8.092;2023-02-18T08:58:10;11.53;;;5.60;;
68858;SDS011;55864;49.238;8.092;2023-02-18T09:00:13;9.90;;;5.00;;
68858;SDS011;55864;49.238;8.092;2023-02-18T09:02:15;8.90;;;4.47;;
68858;SDS011;55864;49.238;8.092;2023-02-18T09:04:16;10.47;;;4.60;;
68858;SDS011;55864;49.238;8.092;2023-02-18T09:06:16;12.73;;;5.30;;
68858;SDS011;55864;49.238;8.092;2023-02-18T09:08:17;10.00;;;4.35;;
68858;SDS011;55864;49.238;8.092;2023-02-18T09:10:17;9.27;;;4.30;;
68858;SDS011;55864;49.238;8.092;2023-02-18T09:12:18;9.50;;;4.03;;
68858;SDS011;55864;49.238;8.092;2023-02-18T09:14:19;8.00;;;3.90;;
68858;SDS011;55864;49.238;8.092;2023-02-18T09:16:21;8.77;;;4.20;;
68858;SDS011;55864;49.238;8.092;2023-02-18T09:18:21;10.30;;;4.43;;
68858;SDS011;55864;49.238;8.092;2023-02-18T09:20:22;8.33;;;4.63;;
68858;SDS011;55864;49.238;8.092;2023-02-18T09:22:22;7.85;;;4.00;;
68858;SDS011;55864;49.238;8.092;2023-02-18T09:24:23;8.05;;;3.60;;
68858;SDS011;55864;49.238;8.092;2023-02-18T09:26:23;9.10;;;4.37;;
68858;SDS011;55864;49.238;8.092;2023-02-18T09:28:25;9.73;;;4.50;;
68858;SDS011;55864;49.238;8.092;2023-02-18T09:30:26;7.70;;;4.20;;
68858;SDS011;55864;49.238;8.092;2023-02-18T09:32:28;8.40;;;4.27;;
68858;SDS011;55864;49.238;8.092;2023-02-18T09:34:28;8.40;;;4.20;;
68858;SDS011;55864;49.238;8.092;2023-02-18T09:36:29;7.85;;;3.75;;
68858;SDS011;55864;49.238;8.092;2023-02-18T09:38:30;8.40;;;3.88;;
68858;SDS011;55864;49.238;8.092;2023-02-18T09:40:31;10.30;;;4.00;;
68858;SDS011;55864;49.238;8.092;2023-02-18T09:42:34;9.38;;;4.15;;
68858;SDS011;55864;49.238;8.092;2023-02-18T09:44:35;7.83;;;3.83;;
68858;SDS011;55864;49.238;8.092;2023-02-18T09:46:42;9.63;;;3.70;;
68858;SDS011;55864;49.238;8.092;2023-02-18T09:48:49;7.63;;;3.83;;
68858;SDS011;55864;49.238;8.092;2023-02-18T09:50:51;8.02;;;3.90;;
68858;SDS011;55864;49.238;8.092;2023-02-18T09:52:52;8.33;;;3.70;;
68858;SDS011;55864;49.238;8.092;2023-02-18T09:54:54;7.72;;;3.85;;
68858;SDS011;55864;49.238;8.092;2023-02-18T09:56:55;8.07;;;3.70;;
68858;SDS011;55864;49.238;8.092;2023-02-18T09:58:56;7.45;;;3.55;;
68858;SDS011;55864;49.238;8.092;2023-02-18T10:01:03;9.82;;;3.53;;
68858;SDS011;55864;49.238;8.092;2023-02-18T10:03:06;6.95;;;3.42;;
68858;SDS011;55864;49.238;8.092;2023-02-18T10:05:11;10.98;;;3.40;;
68858;SDS011;55864;49.238;8.092;2023-02-18T10:07:18;11.27;;;5.20;;
68858;SDS011;55864;49.238;8.092;2023-02-18T10:09:23;9.00;;;4.28;;
68858;SDS011;55864;49.238;8.092;2023-02-18T10:11:28;10.27;;;4.60;;
68858;SDS011;55864;49.238;8.092;2023-02-18T10:13:31;8.73;;;3.78;;
68858;SDS011;55864;49.238;8.092;2023-02-18T10:15:33;7.93;;;3.50;;
68858;SDS011;55864;49.238;8.092;2023-02-18T10:17:36;9.55;;;3.45;;
68858;SDS011;55864;49.238;8.092;2023-02-18T10:19:37;8.77;;;3.28;;
68858;SDS011;55864;49.238;8.092;2023-02-18T10:21:40;7.18;;;3.80;;
68858;SDS011;55864;49.238;8.092;2023-02-18T10:23:52;8.00;;;3.70;;
68858;SDS011;55864;49.238;8.092;2023-02-18T10:25:57;7.30;;;3.20;;
68858;SDS011;55864;49.238;8.092;2023-02-18T10:28:00;6.90;;;2.87;;
68858;SDS011;55864;49.238;8.092;2023-02-18T10:30:04;7.05;;;3.10;;
68858;SDS011;55864;49.238;8.092;2023-02-18T10:32:18;9.38;;;3.30;;
68858;SDS011;55864;49.238;8.092;2023-02-18T10:34:23;7.90;;;2.92;;
68858;SDS011;55864;49.238;8.092;2023-02-18T10:36:38;5.82;;;2.70;;
68858;SDS011;55864;49.238;8.092;2023-02-18T10:38:45;6.20;;;2.78;;
68858;SDS011;55864;49.238;8.092;2023-02-18T10:41:02;7.05;;;2.90;;
68858;SDS011;55864;49.238;8.092;2023-02-18T10:43:11;6.03;;;2.85;;
68858;SDS011;55864;49.238;8.092;2023-02-18T10:45:25;7.85;;;3.33;;
68858;SDS011;55864;49.238;8.092;2023-02-18T10:47:36;9.10;;;3.70;;
68858;SDS011;55864;49.238;8.092;2023-02-18T10:49:47;8.40;;;3.45;;
68858;SDS011;55864;49.238;8.092;2023-02-18T10:51:56;6.43;;;3.10;;
68858;SDS011;55864;49.238;8.092;2023-02-18T10:54:01;7.63;;;3.15;;
68858;SDS011;55864;49.238;8.092;2023-02-18T10:56:02;6.75;;;3.20;;
68858;SDS011;55864;49.238;8.092;2023-02-18T10:58:09;6.25;;;2.80;;
68858;SDS011;55864;49.238;8.092;2023-02-18T11:00:26;7.03;;;2.97;;
68858;SDS011;55864;49.238;8.092;2023-02-18T11:02:27;7.18;;;3.10;;
68858;SDS011;55864;49.238;8.092;2023-02-18T11:04:33;7.03;;;2.97;;
68858;SDS011;55864;49.238;8.092;2023-02-18T11:06:37;7.45;;;2.90;;
68858;SDS011;55864;49.238;8.092;2023-02-18T11:08:41;8.02;;;3.55;;
68858;SDS011;55864;49.238;8.092;2023-02-18T11:10:44;8.60;;;2.85;;
68858;SDS011;55864;49.238;8.092;2023-02-18T11:12:48;7.97;;;3.30;;
68858;SDS011;55864;49.238;8.092;2023-02-18T11:15:04;8.88;;;3.20;;
68858;SDS011;55864;49.238;8.092;2023-02-18T11:17:19;7.18;;;3.28;;
68858;SDS011;55864;49.238;8.092;2023-02-18T11:19:30;10.30;;;3.65;;
68858;SDS011;55864;49.238;8.092;2023-02-18T11:21:34;10.10;;;3.80;;
68858;SDS011;55864;49.238;8.092;2023-02-18T11:23:44;10.90;;;3.97;;
68858;SDS011;55864;49.238;8.092;2023-02-18T11:25:53;12.27;;;3.17;;
68858;SDS011;55864;49.238;8.092;2023-02-18T11:27:57;7.90;;;3.08;;
68858;SDS011;55864;49.238;8.092;2023-02-18T11:30:02;9.07;;;3.30;;
68858;SDS011;55864;49.238;8.092;2023-02-18T11:32:05;9.52;;;3.25;;
68858;SDS011;55864;49.238;8.092;2023-02-18T11:34:13;8.43;;;3.17;;
68858;SDS011;55864;49.238;8.092;2023-02-18T11:36:18;7.63;;;3.08;;
68858;SDS011;55864;49.238;8.092;2023-02-18T11:38:24;7.20;;;2.50;;
68858;SDS011;55864;49.238;8.092;2023-02-18T11:40:34;7.90;;;2.72;;
68858;SDS011;55864;49.238;8.092;2023-02-18T11:42:35;7.90;;;2.88;;
68858;SDS011;55864;49.238;8.092;2023-02-18T11:44:36;7.07;;;3.13;;
68858;SDS011;55864;49.238;8.092;2023-02-18T11:46:39;7.05;;;3.10;;
68858;SDS011;55864;49.238;8.092;2023-02-18T11:48:56;9.27;;;4.03;;
68858;SDS011;55864;49.238;8.092;2023-02-18T11:51:20;10.52;;;4.47;;
68858;SDS011;55864;49.238;8.092;2023-02-18T11:53:27;13.23;;;4.03;;
68858;SDS011;55864;49.238;8.092;2023-02-18T11:55:29;10.38;;;3.70;;
68858;SDS011;55864;49.238;8.092;2023-02-18T11:57:31;9.63;;;4.53;;
68858;SDS011;55864;49.238;8.092;2023-02-18T11:59:35;8.38;;;4.18;;
68858;SDS011;55864;49.238;8.092;2023-02-18T12:01:40;8.70;;;4.20;;
68858;SDS011;55864;49.238;8.092;2023-02-18T12:03:46;8.70;;;4.75;;
68858;SDS011;55864;49.238;8.092;2023-02-18T12:05:52;8.77;;;4.68;;
68858;SDS011;55864;49.238;8.092;2023-02-18T12:10:23;10.77;;;5.28;;
68858;SDS011;55864;49.238;8.092;2023-02-18T12:12:28;10.80;;;5.28;;
68858;SDS011;55864;49.238;8.092;2023-02-18T12:14:32;14.43;;;7.30;;
68858;SDS011;55864;49.238;8.092;2023-02-18T12:16:37;10.23;;;5.70;;
68858;SDS011;55864;49.238;8.092;2023-02-18T12:18:49;11.45;;;6.60;;
68858;SDS011;55864;49.238;8.092;2023-02-18T12:21:17;13.55;;;7.80;;
68858;SDS011;55864;49.238;8.092;2023-02-18T12:23:29;13.00;;;6.68;;
68858;SDS011;55864;49.238;8.092;2023-02-18T12:25:39;17.52;;;7.20;;
68858;SDS011;55864;49.238;8.092;2023-02-18T12:27:48;16.88;;;7.97;;